Airfield :
LOGIN :

Register | Disclaimer

   EN    FR    IT 

 










Legend :    VFR   Marginal VFR   IFR   Intensive IFR   Very Intensive IFR
Visi :
Ceiling :
>= 8 km
>= 3000ft
5 to 8 km
1000 to 3000 ft
1500m to 5 km
500 to 1000 ft
800 to 1500m
200 to 500 ft
< 800m
< 200 ft
Symbols :   Thunderstorms  Fog  Heavy snow  Heavy precipitations  Wind > 20 kt
SIGMETs :     Misc.  Thunderstorms  Icing  Turbulence  Mountain Waves  Volcanic Ashes







- Airport Elevation : 19 ft
- IATA code : LCY
- Download approach charts


EGLC - London City

CURRENT METAR :
  • 191150Z AUTO 14008KT 100V170 9999 BKN014 17/14 Q1003

EXPIRED METARs :
  • 191120Z AUTO 13011KT 9999 NCD 17/14 Q1004
  • 191050Z AUTO 09006KT 5000 HZ NCD 16/15 Q1004
  • 191020Z AUTO 10006KT 4500 HZ SCT006 16/15 Q1004
  • 190950Z AUTO 09008KT 3900 HZ SCT007 16/15 Q1005
  • 190920Z AUTO 08007KT 2900 HZ SCT004 16/15 Q1005

TAF AMD TAF EGLC
Valid from the 19 at 12:00 until the 19 at 21:00 UTC


191156Z 1912/1921 10006KT 9999 SCT015
BECMG 1912/1914 19012KT
TEMPO 1912/1921 6000 -RADZ BKN014
PROB30
TEMPO 1920/1921 20015G25KT 3000 +RA
ATIS : +44 20 7646 0224
No reported NOTAMs for that airfield.



MET'MAP, your aeronautical weather chart ! - Copyright ORBIFLY December 2007 - Disclaimer

ORBIFLY MET'MAP TEAM :

Programming & Development : Alexandra Zaïnal
Concept & Development : Baudouin d'Aumeries
Co-Development & Prog : Marc-Olivier Méhu
Technical & hardware support : Manuel Goepfert

Contact : metmap@orbifly.com




SOURCES & CREDITS :

   NOAA